Impacts TAF Board
For situational awareness. Not to be used for flight planning purposes.
IDs:

KLGA - New York/La Guardia, NY, US

Issued at 0538 UTC 24 Jan 2019
Updated at 0621 UTC 24 Jan 2019
Potential Impact None Slight Moderate High
Time0551Z 24/07Z 24/08Z 24/09Z 24/10Z 24/11Z 24/12Z 24/13Z 24/14Z 24/15Z 24/16Z 24/17Z 24/18Z 24/19Z>>
Type OBS PRVL
  [TEMP]  
PRVL
  [TEMP]  
PRVL PRVL PRVL PRVL PRVL PRVL PRVL PRVL PRVL
  [TEMP]  
PRVL
  [TEMP]  
PRVL
  [TEMP]  
VIS 9 >6
  [5]  
>6
  [5]  
3 3 3 3 3 3 2 2 2
  [1]  
2
  [1]  
2
  [1]  
CIG 28 15
  [7]  
15
  [7]  
7 7 7 7 7 7 5 5 5
  [5]  
5
  [5]  
5
  [5]  
Cover OVC BKN
  [BKN]  
BKN
  [BKN]  
OVC OVC OVC OVC OVC OVC OVC OVC OVC
  [OVC]  
OVC
  [OVC]  
OVC
  [OVC]  
FltCat MVFR MVFR
  [IFR]  
MVFR
  [IFR]  
IFR IFR IFR IFR IFR IFR IFR IFR IFR
  [IFR]  
IFR
  [IFR]  
IFR
  [IFR]  
WX -RA VCSH
  [-RA BR]  
VCSH
  [-RA BR]  
-RA BR -RA BR -RA BR -RA BR -RA BR -RA BR RA RA RA
  [+RA BR]  
RA
  [+RA BR]  
RA
  [+RA BR]  
WDir 170 180
[180]
180
[180]
180 180 180 180 180 180 180 180 180
[180]
180
[180]
180
[180]
WSpd 6 11
  [11]  
11
  [11]  
16 16 16 16 16 16 24 24 24
  [24]  
24
  [24]  
24
  [24]  
WGst -- 18
  [18]  
18
  [18]  
22 22 22 22 22 22 36 36 36
  [36]  
36
  [36]  
36
  [36]  
Raw TAF
KLGA 240538Z 2406/2512 17009KT P6SM VCSH BKN020 WS020/21060KT
  FM240700 18011G18KT P6SM VCSH SCT007 BKN015 WS020/21060KT
  TEMPO 2407/2409 5SM -RA BR BKN007
  FM240900 18016G22KT 3SM -RA BR OVC007 WS020/20065KT
  FM241500 18024G36KT 2SM RA OVC005 WS020/20065KT
  TEMPO 2417/2420 1SM +RA BR
  FM242000 30018G27KT 5SM -RA SCT005 BKN010 WS020/20045KT
  FM242200 30016G24KT P6SM SCT020 BKN040
  FM250600 29010KT P6SM FEW035


Raw METAR
KLGA 240551Z 17006KT 9SM -RA BKN028 OVC050 09/06 A2990 RMK AO2 RAB42 SLP124 P0000 60000 T00890061 10089 20056 58026
KLGA 240516Z 16006KT 10SM BKN026 BKN031 OVC055 08/06 A2992 RMK AO2 T00830056
KLGA 240451Z 16005KT 10SM FEW026 OVC050 08/06 A2993 RMK AO2 SLP134 T00780056 400831011
KLGA 240351Z 16007KT 10SM FEW036 OVC065 07/05 A2995 RMK AO2 SLP142 T00720050

METAR Board
Radar Display
Forecast Discussion
For situational awareness. Not to be used for flight planning purposes.